sensor_id;sensor_type;location;lat;lon;timestamp;pressure;altitude;pressure_sealevel;temperature;humidity
73518;BME280;61766;60.318;25.044;2023-06-26T00:00:25;101381.35;;;18.76;40.30
73518;BME280;61766;60.318;25.044;2023-06-26T00:02:51;101380.26;;;18.95;40.40
73518;BME280;61766;60.318;25.044;2023-06-26T00:05:17;101376.40;;;19.14;40.03
73518;BME280;61766;60.318;25.044;2023-06-26T00:07:42;101379.51;;;19.06;40.40
73518;BME280;61766;60.318;25.044;2023-06-26T00:10:08;101376.13;;;18.84;40.20
73518;BME280;61766;60.318;25.044;2023-06-26T00:12:34;101376.81;;;19.08;40.34
73518;BME280;61766;60.318;25.044;2023-06-26T00:15:00;101375.30;;;18.86;40.19
73518;BME280;61766;60.318;25.044;2023-06-26T00:17:25;101371.31;;;18.55;40.19
73518;BME280;61766;60.318;25.044;2023-06-26T00:19:50;101372.60;;;18.98;40.08
73518;BME280;61766;60.318;25.044;2023-06-26T00:22:16;101375.11;;;18.94;40.04
73518;BME280;61766;60.318;25.044;2023-06-26T00:24:42;101374.74;;;18.94;39.92
73518;BME280;61766;60.318;25.044;2023-06-26T00:27:08;101375.43;;;18.89;39.92
73518;BME280;61766;60.318;25.044;2023-06-26T00:29:33;101376.39;;;18.42;39.86
73518;BME280;61766;60.318;25.044;2023-06-26T00:31:59;101374.46;;;18.86;39.96
73518;BME280;61766;60.318;25.044;2023-06-26T00:34:25;101372.99;;;18.83;39.69
73518;BME280;61766;60.318;25.044;2023-06-26T00:36:50;101373.97;;;18.75;39.86
73518;BME280;61766;60.318;25.044;2023-06-26T00:39:16;101376.03;;;18.74;39.81
73518;BME280;61766;60.318;25.044;2023-06-26T00:41:42;101374.86;;;18.76;39.78
73518;BME280;61766;60.318;25.044;2023-06-26T00:44:08;101375.91;;;18.36;40.34
73518;BME280;61766;60.318;25.044;2023-06-26T00:46:34;101374.96;;;18.33;40.93
73518;BME280;61766;60.318;25.044;2023-06-26T00:49:02;101372.58;;;18.38;40.86
73518;BME280;61766;60.318;25.044;2023-06-26T00:51:25;101378.91;;;18.47;40.62
73518;BME280;61766;60.318;25.044;2023-06-26T00:53:51;101375.42;;;18.51;40.57
73518;BME280;61766;60.318;25.044;2023-06-26T00:56:20;101373.89;;;18.52;40.49
73518;BME280;61766;60.318;25.044;2023-06-26T00:58:42;101373.91;;;18.79;40.27
73518;BME280;61766;60.318;25.044;2023-06-26T01:01:08;101372.82;;;18.58;40.28
73518;BME280;61766;60.318;25.044;2023-06-26T01:03:34;101372.40;;;18.60;40.03
73518;BME280;61766;60.318;25.044;2023-06-26T01:06:00;101371.69;;;18.63;39.94
73518;BME280;61766;60.318;25.044;2023-06-26T01:08:25;101373.09;;;18.14;40.06
73518;BME280;61766;60.318;25.044;2023-06-26T01:10:51;101374.86;;;18.62;40.43
73518;BME280;61766;60.318;25.044;2023-06-26T01:13:17;101371.46;;;18.29;40.61
73518;BME280;61766;60.318;25.044;2023-06-26T01:15:42;101370.50;;;18.46;40.41
73518;BME280;61766;60.318;25.044;2023-06-26T01:18:08;101373.55;;;18.45;40.30
73518;BME280;61766;60.318;25.044;2023-06-26T01:20:36;101376.43;;;18.37;40.58
73518;BME280;61766;60.318;25.044;2023-06-26T01:23:05;101374.93;;;18.59;40.46
73518;BME280;61766;60.318;25.044;2023-06-26T01:25:31;101371.59;;;18.45;40.63
73518;BME280;61766;60.318;25.044;2023-06-26T01:27:52;101369.55;;;18.07;40.78
73518;BME280;61766;60.318;25.044;2023-06-26T01:30:16;101369.20;;;18.04;40.79
73518;BME280;61766;60.318;25.044;2023-06-26T01:32:42;101370.62;;;18.33;40.47
73518;BME280;61766;60.318;25.044;2023-06-26T01:35:08;101371.72;;;18.09;40.70
73518;BME280;61766;60.318;25.044;2023-06-26T01:37:32;101370.81;;;18.33;40.53
73518;BME280;61766;60.318;25.044;2023-06-26T01:39:58;101369.50;;;18.36;40.34
73518;BME280;61766;60.318;25.044;2023-06-26T01:42:24;101366.98;;;18.09;40.40
73518;BME280;61766;60.318;25.044;2023-06-26T01:44:50;101366.63;;;18.35;40.18
73518;BME280;61766;60.318;25.044;2023-06-26T01:47:21;101364.14;;;18.56;40.37
73518;BME280;61766;60.318;25.044;2023-06-26T01:49:47;101366.01;;;18.13;40.34
73518;BME280;61766;60.318;25.044;2023-06-26T01:52:19;101366.64;;;18.18;40.21
73518;BME280;61766;60.318;25.044;2023-06-26T01:54:37;101372.91;;;18.15;40.31
73518;BME280;61766;60.318;25.044;2023-06-26T01:56:59;101375.22;;;18.19;40.25
73518;BME280;61766;60.318;25.044;2023-06-26T01:59:25;101375.51;;;18.19;40.60
73518;BME280;61766;60.318;25.044;2023-06-26T02:01:49;101374.33;;;18.19;41.09
73518;BME280;61766;60.318;25.044;2023-06-26T02:04:15;101379.03;;;18.51;40.73
73518;BME280;61766;60.318;25.044;2023-06-26T02:06:41;101383.46;;;18.03;40.97
73518;BME280;61766;60.318;25.044;2023-06-26T02:09:07;101383.98;;;18.12;40.80
73518;BME280;61766;60.318;25.044;2023-06-26T02:11:32;101384.47;;;18.22;40.61
73518;BME280;61766;60.318;25.044;2023-06-26T02:13:58;101383.94;;;18.25;40.57
73518;BME280;61766;60.318;25.044;2023-06-26T02:16:23;101385.33;;;18.09;40.95
73518;BME280;61766;60.318;25.044;2023-06-26T02:18:49;101387.78;;;18.41;41.11
73518;BME280;61766;60.318;25.044;2023-06-26T02:21:15;101385.82;;;17.97;41.85
73518;BME280;61766;60.318;25.044;2023-06-26T02:23:41;101390.77;;;17.86;43.04
73518;BME280;61766;60.318;25.044;2023-06-26T02:26:06;101390.36;;;18.01;42.52
73518;BME280;61766;60.318;25.044;2023-06-26T02:28:32;101386.90;;;18.05;42.67
73518;BME280;61766;60.318;25.044;2023-06-26T02:30:58;101384.62;;;17.98;42.41
73518;BME280;61766;60.318;25.044;2023-06-26T02:33:23;101383.93;;;18.01;42.34
73518;BME280;61766;60.318;25.044;2023-06-26T02:35:49;101385.52;;;18.11;42.31
73518;BME280;61766;60.318;25.044;2023-06-26T02:38:15;101385.05;;;18.20;42.36
73518;BME280;61766;60.318;25.044;2023-06-26T02:40:40;101382.82;;;18.34;41.74
73518;BME280;61766;60.318;25.044;2023-06-26T02:43:06;101383.21;;;18.44;41.65
73518;BME280;61766;60.318;25.044;2023-06-26T02:45:31;101381.86;;;18.74;41.43
73518;BME280;61766;60.318;25.044;2023-06-26T02:47:56;101382.22;;;18.92;41.66
73518;BME280;61766;60.318;25.044;2023-06-26T02:50:22;101384.00;;;18.51;41.82
73518;BME280;61766;60.318;25.044;2023-06-26T02:52:48;101384.42;;;18.64;41.98
73518;BME280;61766;60.318;25.044;2023-06-26T02:55:13;101384.27;;;18.68;42.51
73518;BME280;61766;60.318;25.044;2023-06-26T02:57:39;101383.21;;;18.75;42.57
73518;BME280;61766;60.318;25.044;2023-06-26T03:00:05;101382.08;;;18.57;43.15
73518;BME280;61766;60.318;25.044;2023-06-26T03:02:30;101385.35;;;18.52;43.49
73518;BME280;61766;60.318;25.044;2023-06-26T03:04:56;101383.29;;;18.69;43.37
73518;BME280;61766;60.318;25.044;2023-06-26T03:07:22;101386.65;;;18.45;44.87
73518;BME280;61766;60.318;25.044;2023-06-26T03:09:48;101385.60;;;18.55;45.89
73518;BME280;61766;60.318;25.044;2023-06-26T03:12:13;101384.07;;;18.63;45.38
73518;BME280;61766;60.318;25.044;2023-06-26T03:14:38;101384.53;;;19.01;44.52
73518;BME280;61766;60.318;25.044;2023-06-26T03:17:04;101387.67;;;18.75;44.54
73518;BME280;61766;60.318;25.044;2023-06-26T03:19:29;101385.67;;;19.20;44.17
73518;BME280;61766;60.318;25.044;2023-06-26T03:21:55;101385.06;;;18.98;44.28
73518;BME280;61766;60.318;25.044;2023-06-26T03:24:21;101388.31;;;18.92;44.29
73518;BME280;61766;60.318;25.044;2023-06-26T03:26:46;101386.76;;;19.19;44.53
73518;BME280;61766;60.318;25.044;2023-06-26T03:29:12;101386.90;;;19.43;44.14
73518;BME280;61766;60.318;25.044;2023-06-26T03:31:38;101388.11;;;19.24;44.47
73518;BME280;61766;60.318;25.044;2023-06-26T03:34:03;101387.82;;;19.57;44.39
73518;BME280;61766;60.318;25.044;2023-06-26T03:36:29;101384.95;;;19.66;44.19
73518;BME280;61766;60.318;25.044;2023-06-26T03:38:54;101385.49;;;19.72;44.28
73518;BME280;61766;60.318;25.044;2023-06-26T03:41:20;101386.32;;;19.62;44.88
73518;BME280;61766;60.318;25.044;2023-06-26T03:43:46;101384.75;;;19.83;44.62
73518;BME280;61766;60.318;25.044;2023-06-26T03:46:11;101385.37;;;19.82;45.11
73518;BME280;61766;60.318;25.044;2023-06-26T03:48:37;101384.30;;;19.71;45.57
73518;BME280;61766;60.318;25.044;2023-06-26T03:51:03;101385.12;;;19.68;45.54
73518;BME280;61766;60.318;25.044;2023-06-26T03:53:28;101383.31;;;19.85;45.04
73518;BME280;61766;60.318;25.044;2023-06-26T03:55:54;101379.33;;;19.74;44.73
73518;BME280;61766;60.318;25.044;2023-06-26T03:58:19;101382.42;;;20.08;45.12
73518;BME280;61766;60.318;25.044;2023-06-26T04:00:45;101379.83;;;20.27;44.97
73518;BME280;61766;60.318;25.044;2023-06-26T04:03:11;101384.04;;;20.34;45.34
73518;BME280;61766;60.318;25.044;2023-06-26T04:05:35;101382.78;;;20.61;44.47
73518;BME280;61766;60.318;25.044;2023-06-26T04:08:01;101381.74;;;20.53;44.08
73518;BME280;61766;60.318;25.044;2023-06-26T04:10:26;101381.94;;;20.95;44.08
73518;BME280;61766;60.318;25.044;2023-06-26T04:12:52;101382.04;;;20.83;44.46
73518;BME280;61766;60.318;25.044;2023-06-26T04:15:17;101380.52;;;20.47;44.97
73518;BME280;61766;60.318;25.044;2023-06-26T04:17:43;101381.12;;;20.63;44.67
73518;BME280;61766;60.318;25.044;2023-06-26T04:20:09;101377.41;;;20.79;45.02
73518;BME280;61766;60.318;25.044;2023-06-26T04:22:33;101378.04;;;20.54;45.67
73518;BME280;61766;60.318;25.044;2023-06-26T04:25:02;101380.57;;;20.56;44.78
73518;BME280;61766;60.318;25.044;2023-06-26T04:27:24;101377.16;;;20.95;44.09
73518;BME280;61766;60.318;25.044;2023-06-26T04:29:50;101374.18;;;21.40;44.02
73518;BME280;61766;60.318;25.044;2023-06-26T04:32:15;101374.87;;;21.06;44.65
73518;BME280;61766;60.318;25.044;2023-06-26T04:34:41;101372.84;;;21.47;43.65
73518;BME280;61766;60.318;25.044;2023-06-26T04:37:06;101370.81;;;21.66;44.96
73518;BME280;61766;60.318;25.044;2023-06-26T04:39:32;101369.94;;;21.83;43.82
73518;BME280;61766;60.318;25.044;2023-06-26T04:41:57;101369.44;;;21.98;43.38
73518;BME280;61766;60.318;25.044;2023-06-26T04:44:23;101363.30;;;21.64;43.06
73518;BME280;61766;60.318;25.044;2023-06-26T04:46:48;101363.31;;;21.99;43.12
73518;BME280;61766;60.318;25.044;2023-06-26T04:49:13;101364.93;;;22.16;42.97
73518;BME280;61766;60.318;25.044;2023-06-26T04:51:39;101360.04;;;22.35;42.10
73518;BME280;61766;60.318;25.044;2023-06-26T04:54:04;101361.54;;;22.42;42.49
73518;BME280;61766;60.318;25.044;2023-06-26T04:56:29;101360.13;;;22.55;41.88
73518;BME280;61766;60.318;25.044;2023-06-26T04:58:55;101356.68;;;22.99;42.30
73518;BME280;61766;60.318;25.044;2023-06-26T05:01:21;101356.55;;;23.07;42.81
73518;BME280;61766;60.318;25.044;2023-06-26T05:03:46;101355.84;;;23.10;41.32
73518;BME280;61766;60.318;25.044;2023-06-26T05:06:11;101355.77;;;23.24;40.42
73518;BME280;61766;60.318;25.044;2023-06-26T05:08:37;101356.16;;;23.11;41.69
73518;BME280;61766;60.318;25.044;2023-06-26T05:11:02;101356.11;;;23.25;41.98
73518;BME280;61766;60.318;25.044;2023-06-26T05:13:30;101358.92;;;23.17;42.64
73518;BME280;61766;60.318;25.044;2023-06-26T05:15:54;101362.44;;;23.10;42.35
73518;BME280;61766;60.318;25.044;2023-06-26T05:18:19;101365.35;;;23.00;42.09
73518;BME280;61766;60.318;25.044;2023-06-26T05:20:46;101367.17;;;23.01;42.72
73518;BME280;61766;60.318;25.044;2023-06-26T05:23:11;101365.69;;;23.36;42.19
73518;BME280;61766;60.318;25.044;2023-06-26T05:25:41;101363.21;;;23.60;41.40
73518;BME280;61766;60.318;25.044;2023-06-26T05:28:03;101362.64;;;23.46;41.66
73518;BME280;61766;60.318;25.044;2023-06-26T05:30:27;101360.63;;;23.05;41.24
73518;BME280;61766;60.318;25.044;2023-06-26T05:32:53;101358.54;;;22.77;40.99
73518;BME280;61766;60.318;25.044;2023-06-26T05:35:18;101358.79;;;23.29;40.58
73518;BME280;61766;60.318;25.044;2023-06-26T05:37:47;101359.80;;;23.43;40.26
73518;BME280;61766;60.318;25.044;2023-06-26T05:40:10;101362.22;;;23.40;39.83
73518;BME280;61766;60.318;25.044;2023-06-26T05:42:35;101358.74;;;23.47;39.89
73518;BME280;61766;60.318;25.044;2023-06-26T05:45:00;101361.23;;;23.39;39.79
73518;BME280;61766;60.318;25.044;2023-06-26T05:47:25;101360.93;;;23.96;40.07
73518;BME280;61766;60.318;25.044;2023-06-26T05:49:50;101364.49;;;24.01;40.53
73518;BME280;61766;60.318;25.044;2023-06-26T05:52:16;101363.70;;;23.95;39.94
73518;BME280;61766;60.318;25.044;2023-06-26T05:54:41;101360.84;;;23.89;40.33
73518;BME280;61766;60.318;25.044;2023-06-26T05:57:07;101361.46;;;24.11;38.13
73518;BME280;61766;60.318;25.044;2023-06-26T05:59:33;101361.24;;;24.48;39.03
73518;BME280;61766;60.318;25.044;2023-06-26T06:01:59;101357.45;;;24.46;38.81
73518;BME280;61766;60.318;25.044;2023-06-26T06:04:23;101356.82;;;24.95;38.41
73518;BME280;61766;60.318;25.044;2023-06-26T06:06:48;101359.36;;;25.35;37.23
73518;BME280;61766;60.318;25.044;2023-06-26T06:09:13;101355.41;;;25.13;36.84
73518;BME280;61766;60.318;25.044;2023-06-26T06:11:39;101358.12;;;25.29;36.81
73518;BME280;61766;60.318;25.044;2023-06-26T06:14:04;101361.58;;;25.29;35.57
73518;BME280;61766;60.318;25.044;2023-06-26T06:16:30;101359.01;;;25.58;34.89
73518;BME280;61766;60.318;25.044;2023-06-26T06:18:59;101356.24;;;25.34;36.50
73518;BME280;61766;60.318;25.044;2023-06-26T06:21:20;101358.01;;;25.06;36.29
73518;BME280;61766;60.318;25.044;2023-06-26T06:23:45;101352.30;;;25.14;35.11
73518;BME280;61766;60.318;25.044;2023-06-26T06:26:11;101355.58;;;25.38;34.77
73518;BME280;61766;60.318;25.044;2023-06-26T06:28:36;101354.44;;;25.35;35.47
73518;BME280;61766;60.318;25.044;2023-06-26T06:31:02;101352.66;;;25.16;35.00
73518;BME280;61766;60.318;25.044;2023-06-26T06:33:27;101350.22;;;25.77;35.40
73518;BME280;61766;60.318;25.044;2023-06-26T06:35:53;101347.34;;;26.20;34.27
73518;BME280;61766;60.318;25.044;2023-06-26T06:38:18;101348.68;;;25.77;33.77
73518;BME280;61766;60.318;25.044;2023-06-26T06:40:44;101347.21;;;26.09;34.18
73518;BME280;61766;60.318;25.044;2023-06-26T06:43:10;101341.61;;;26.12;32.66
73518;BME280;61766;60.318;25.044;2023-06-26T06:45:35;101347.55;;;25.35;33.69
73518;BME280;61766;60.318;25.044;2023-06-26T06:48:01;101347.78;;;25.73;34.05
73518;BME280;61766;60.318;25.044;2023-06-26T06:50:26;101349.00;;;25.85;33.79
73518;BME280;61766;60.318;25.044;2023-06-26T06:52:55;101348.65;;;26.11;31.94
73518;BME280;61766;60.318;25.044;2023-06-26T06:55:17;101346.33;;;26.05;32.12
73518;BME280;61766;60.318;25.044;2023-06-26T06:57:43;101348.94;;;26.04;31.90
73518;BME280;61766;60.318;25.044;2023-06-26T07:00:11;101349.49;;;25.70;31.78
73518;BME280;61766;60.318;25.044;2023-06-26T07:02:34;101347.43;;;25.65;32.30
73518;BME280;61766;60.318;25.044;2023-06-26T07:04:59;101346.10;;;26.12;32.64
73518;BME280;61766;60.318;25.044;2023-06-26T07:07:29;101344.99;;;26.75;33.26
73518;BME280;61766;60.318;25.044;2023-06-26T07:09:50;101336.96;;;26.45;33.61
73518;BME280;61766;60.318;25.044;2023-06-26T07:12:17;101334.51;;;26.98;31.23
73518;BME280;61766;60.318;25.044;2023-06-26T07:14:41;101331.54;;;27.35;31.31
73518;BME280;61766;60.318;25.044;2023-06-26T07:17:07;101328.10;;;27.85;30.46
73518;BME280;61766;60.318;25.044;2023-06-26T07:19:32;101327.36;;;27.40;30.11
73518;BME280;61766;60.318;25.044;2023-06-26T07:21:58;101329.50;;;27.41;28.79
73518;BME280;61766;60.318;25.044;2023-06-26T07:24:23;101323.00;;;27.28;29.02
73518;BME280;61766;60.318;25.044;2023-06-26T07:26:48;101326.75;;;27.32;29.91
73518;BME280;61766;60.318;25.044;2023-06-26T07:29:14;101324.67;;;27.30;29.31
73518;BME280;61766;60.318;25.044;2023-06-26T07:31:39;101322.25;;;27.25;29.54
73518;BME280;61766;60.318;25.044;2023-06-26T07:34:05;101319.17;;;27.51;29.53
73518;BME280;61766;60.318;25.044;2023-06-26T07:36:30;101316.97;;;27.83;28.42
73518;BME280;61766;60.318;25.044;2023-06-26T07:38:56;101316.62;;;27.72;27.43
73518;BME280;61766;60.318;25.044;2023-06-26T07:41:21;101312.23;;;27.58;27.46
73518;BME280;61766;60.318;25.044;2023-06-26T07:43:47;101315.41;;;27.29;28.36
73518;BME280;61766;60.318;25.044;2023-06-26T07:46:13;101311.43;;;27.18;28.72
73518;BME280;61766;60.318;25.044;2023-06-26T07:48:38;101312.78;;;27.87;29.50
73518;BME280;61766;60.318;25.044;2023-06-26T07:51:04;101312.38;;;28.22;27.45
73518;BME280;61766;60.318;25.044;2023-06-26T07:53:29;101312.18;;;28.33;27.29
73518;BME280;61766;60.318;25.044;2023-06-26T07:55:55;101310.35;;;28.56;26.00
73518;BME280;61766;60.318;25.044;2023-06-26T07:58:21;101309.88;;;28.87;26.42
73518;BME280;61766;60.318;25.044;2023-06-26T08:00:46;101307.58;;;28.94;27.73
73518;BME280;61766;60.318;25.044;2023-06-26T08:03:12;101304.96;;;28.72;26.62
73518;BME280;61766;60.318;25.044;2023-06-26T08:05:37;101300.64;;;28.87;25.03
73518;BME280;61766;60.318;25.044;2023-06-26T08:08:07;101297.25;;;28.76;24.58
73518;BME280;61766;60.318;25.044;2023-06-26T08:10:30;101293.60;;;28.95;24.51
73518;BME280;61766;60.318;25.044;2023-06-26T08:13:00;101292.25;;;29.59;24.85
73518;BME280;61766;60.318;25.044;2023-06-26T08:15:20;101293.64;;;29.81;25.88
73518;BME280;61766;60.318;25.044;2023-06-26T08:17:46;101293.00;;;30.36;24.97
73518;BME280;61766;60.318;25.044;2023-06-26T08:20:13;101291.36;;;30.31;24.26
73518;BME280;61766;60.318;25.044;2023-06-26T08:22:37;101295.27;;;30.51;24.60
73518;BME280;61766;60.318;25.044;2023-06-26T08:25:03;101294.00;;;30.08;24.38
73518;BME280;61766;60.318;25.044;2023-06-26T08:27:27;101293.57;;;30.46;25.68
73518;BME280;61766;60.318;25.044;2023-06-26T08:29:52;101293.25;;;30.19;24.20
73518;BME280;61766;60.318;25.044;2023-06-26T08:32:18;101290.57;;;29.47;24.24
73518;BME280;61766;60.318;25.044;2023-06-26T08:34:44;101291.25;;;29.49;25.80
73518;BME280;61766;60.318;25.044;2023-06-26T08:37:09;101290.62;;;29.85;25.62
73518;BME280;61766;60.318;25.044;2023-06-26T08:39:35;101285.74;;;29.37;25.24
73518;BME280;61766;60.318;25.044;2023-06-26T08:42:00;101286.81;;;29.37;24.52
73518;BME280;61766;60.318;25.044;2023-06-26T08:47:12;101293.14;;;29.48;25.06
73518;BME280;61766;60.318;25.044;2023-06-26T08:49:28;101291.78;;;29.13;24.35
73518;BME280;61766;60.318;25.044;2023-06-26T08:51:50;101292.05;;;28.94;24.91
73518;BME280;61766;60.318;25.044;2023-06-26T08:54:14;101291.70;;;28.80;25.68
73518;BME280;61766;60.318;25.044;2023-06-26T08:56:49;101288.21;;;29.24;25.80
73518;BME280;61766;60.318;25.044;2023-06-26T08:59:00;101294.79;;;29.34;25.79
73518;BME280;61766;60.318;25.044;2023-06-26T09:01:27;101280.68;;;29.15;24.63
73518;BME280;61766;60.318;25.044;2023-06-26T09:03:52;101284.69;;;28.75;24.19
73518;BME280;61766;60.318;25.044;2023-06-26T09:06:17;101283.56;;;29.06;24.69
73518;BME280;61766;60.318;25.044;2023-06-26T09:08:43;101285.41;;;29.19;24.97
73518;BME280;61766;60.318;25.044;2023-06-26T09:11:08;101283.64;;;29.39;23.86
73518;BME280;61766;60.318;25.044;2023-06-26T09:13:33;101286.62;;;29.40;23.86
73518;BME280;61766;60.318;25.044;2023-06-26T09:15:59;101280.85;;;30.03;22.94
73518;BME280;61766;60.318;25.044;2023-06-26T09:18:24;101280.22;;;29.33;23.47
73518;BME280;61766;60.318;25.044;2023-06-26T09:20:50;101277.47;;;30.00;22.97
73518;BME280;61766;60.318;25.044;2023-06-26T09:23:16;101271.36;;;30.61;22.28
73518;BME280;61766;60.318;25.044;2023-06-26T09:25:42;101276.92;;;29.83;22.89
73518;BME280;61766;60.318;25.044;2023-06-26T09:28:08;101279.79;;;29.13;23.68
73518;BME280;61766;60.318;25.044;2023-06-26T09:30:32;101278.22;;;27.64;24.58
73518;BME280;61766;60.318;25.044;2023-06-26T09:32:57;101272.12;;;28.91;23.74
73518;BME280;61766;60.318;25.044;2023-06-26T09:35:23;101270.32;;;29.66;23.02
73518;BME280;61766;60.318;25.044;2023-06-26T09:37:49;101272.22;;;28.96;23.40
73518;BME280;61766;60.318;25.044;2023-06-26T09:40:15;101270.72;;;28.97;23.00
73518;BME280;61766;60.318;25.044;2023-06-26T09:42:41;101271.02;;;29.19;22.61
73518;BME280;61766;60.318;25.044;2023-06-26T09:45:06;101269.68;;;29.97;22.05
73518;BME280;61766;60.318;25.044;2023-06-26T09:47:35;101267.08;;;29.80;21.97
73518;BME280;61766;60.318;25.044;2023-06-26T09:49:57;101265.51;;;29.66;21.80
73518;BME280;61766;60.318;25.044;2023-06-26T09:52:26;101259.51;;;30.20;21.12
73518;BME280;61766;60.318;25.044;2023-06-26T09:54:48;101255.34;;;29.95;20.95
73518;BME280;61766;60.318;25.044;2023-06-26T09:57:16;101251.06;;;30.62;19.98
73518;BME280;61766;60.318;25.044;2023-06-26T09:59:40;101247.00;;;30.57;21.91
73518;BME280;61766;60.318;25.044;2023-06-26T10:02:05;101242.85;;;31.04;22.15
73518;BME280;61766;60.318;25.044;2023-06-26T10:04:30;101242.42;;;31.25;21.60
73518;BME280;61766;60.318;25.044;2023-06-26T10:06:57;101245.36;;;31.26;20.40
73518;BME280;61766;60.318;25.044;2023-06-26T10:09:22;101240.83;;;31.09;20.61
73518;BME280;61766;60.318;25.044;2023-06-26T10:11:53;101246.19;;;30.19;21.57
73518;BME280;61766;60.318;25.044;2023-06-26T10:14:13;101245.86;;;30.28;21.77
73518;BME280;61766;60.318;25.044;2023-06-26T10:16:39;101249.04;;;30.07;21.92
73518;BME280;61766;60.318;25.044;2023-06-26T10:19:06;101248.59;;;29.95;22.98
73518;BME280;61766;60.318;25.044;2023-06-26T10:21:31;101247.02;;;30.02;21.28
73518;BME280;61766;60.318;25.044;2023-06-26T10:23:56;101241.72;;;30.06;22.24
73518;BME280;61766;60.318;25.044;2023-06-26T10:26:22;101242.51;;;29.74;23.84
73518;BME280;61766;60.318;25.044;2023-06-26T10:28:47;101231.91;;;30.50;22.32
73518;BME280;61766;60.318;25.044;2023-06-26T10:31:12;101228.83;;;30.84;22.38
73518;BME280;61766;60.318;25.044;2023-06-26T10:33:38;101233.64;;;30.80;20.65
73518;BME280;61766;60.318;25.044;2023-06-26T10:36:14;101233.57;;;30.89;20.54
73518;BME280;61766;60.318;25.044;2023-06-26T10:40:54;101230.73;;;29.47;21.25
73518;BME280;61766;60.318;25.044;2023-06-26T10:43:20;101233.79;;;29.81;21.29
73518;BME280;61766;60.318;25.044;2023-06-26T10:45:47;101236.93;;;30.01;23.34
73518;BME280;61766;60.318;25.044;2023-06-26T10:48:14;101241.91;;;29.32;23.09
73518;BME280;61766;60.318;25.044;2023-06-26T10:50:37;101241.20;;;29.19;23.11
73518;BME280;61766;60.318;25.044;2023-06-26T10:53:09;101238.27;;;29.19;26.42
73518;BME280;61766;60.318;25.044;2023-06-26T10:55:28;101235.58;;;29.07;26.99
73518;BME280;61766;60.318;25.044;2023-06-26T10:57:55;101234.26;;;29.30;29.70
73518;BME280;61766;60.318;25.044;2023-06-26T11:00:19;101229.74;;;29.43;26.79
73518;BME280;61766;60.318;25.044;2023-06-26T11:02:48;101227.60;;;29.24;30.24
73518;BME280;61766;60.318;25.044;2023-06-26T11:05:11;101230.98;;;29.19;33.17
73518;BME280;61766;60.318;25.044;2023-06-26T11:10:08;101232.95;;;28.42;29.72
73518;BME280;61766;60.318;25.044;2023-06-26T11:12:35;101232.99;;;28.65;34.01
73518;BME280;61766;60.318;25.044;2023-06-26T11:14:53;101229.38;;;28.22;34.51
73518;BME280;61766;60.318;25.044;2023-06-26T11:17:19;101218.74;;;28.44;35.05
73518;BME280;61766;60.318;25.044;2023-06-26T11:19:44;101215.21;;;28.90;36.45
73518;BME280;61766;60.318;25.044;2023-06-26T11:22:10;101213.78;;;28.64;37.85
73518;BME280;61766;60.318;25.044;2023-06-26T11:24:36;101213.05;;;28.87;34.58
73518;BME280;61766;60.318;25.044;2023-06-26T11:27:03;101213.72;;;29.14;36.90
73518;BME280;61766;60.318;25.044;2023-06-26T11:29:27;101211.50;;;28.93;31.27
73518;BME280;61766;60.318;25.044;2023-06-26T11:31:58;101210.50;;;28.00;32.45
73518;BME280;61766;60.318;25.044;2023-06-26T11:34:17;101212.83;;;28.72;32.44
73518;BME280;61766;60.318;25.044;2023-06-26T11:36:43;101209.74;;;27.96;30.91
73518;BME280;61766;60.318;25.044;2023-06-26T11:39:10;101212.90;;;28.60;30.38
73518;BME280;61766;60.318;25.044;2023-06-26T11:41:41;101211.64;;;29.05;29.20
73518;BME280;61766;60.318;25.044;2023-06-26T11:44:01;101207.53;;;28.43;30.00
73518;BME280;61766;60.318;25.044;2023-06-26T11:46:25;101205.67;;;29.29;29.23
73518;BME280;61766;60.318;25.044;2023-06-26T11:48:51;101202.03;;;28.92;29.46
73518;BME280;61766;60.318;25.044;2023-06-26T11:51:16;101206.18;;;26.76;29.49
73518;BME280;61766;60.318;25.044;2023-06-26T11:53:42;101196.20;;;28.54;27.53
73518;BME280;61766;60.318;25.044;2023-06-26T11:56:09;101194.13;;;28.61;28.60
73518;BME280;61766;60.318;25.044;2023-06-26T11:58:32;101199.86;;;27.87;28.62
73518;BME280;61766;60.318;25.044;2023-06-26T12:00:58;101196.18;;;28.65;28.53
73518;BME280;61766;60.318;25.044;2023-06-26T12:03:23;101191.29;;;28.58;27.01
73518;BME280;61766;60.318;25.044;2023-06-26T12:05:54;101191.15;;;29.15;27.67
73518;BME280;61766;60.318;25.044;2023-06-26T12:08:15;101188.14;;;28.68;27.62
73518;BME280;61766;60.318;25.044;2023-06-26T12:10:40;101189.68;;;27.53;27.91
73518;BME280;61766;60.318;25.044;2023-06-26T12:13:05;101193.74;;;28.65;28.05
73518;BME280;61766;60.318;25.044;2023-06-26T12:15:31;101189.61;;;28.06;27.67
73518;BME280;61766;60.318;25.044;2023-06-26T12:17:56;101182.61;;;28.09;27.47
73518;BME280;61766;60.318;25.044;2023-06-26T12:20:23;101177.70;;;28.10;27.54
73518;BME280;61766;60.318;25.044;2023-06-26T12:22:48;101175.82;;;28.54;27.87
73518;BME280;61766;60.318;25.044;2023-06-26T12:25:12;101175.62;;;27.91;28.00
73518;BME280;61766;60.318;25.044;2023-06-26T12:27:37;101178.00;;;27.91;27.80
73518;BME280;61766;60.318;25.044;2023-06-26T12:30:04;101180.73;;;27.90;27.79
73518;BME280;61766;60.318;25.044;2023-06-26T12:32:29;101172.07;;;27.45;28.13
73518;BME280;61766;60.318;25.044;2023-06-26T12:34:56;101173.56;;;26.88;28.30
73518;BME280;61766;60.318;25.044;2023-06-26T12:37:20;101169.97;;;27.31;27.56